Time;durP1;ratioP1;P1;durP2;ratioP2;P2;SDS_P1;SDS_P2;PMS_P1;PMS_P2;Temp;Humidity;BMP_temperature;BMP_pressure;BME280_temperature;BME280_humidity;BME280_pressure;Samples;Min_cycle;Max_cycle;Signal;HPM_P1;HPM_P2
2022/05/27 00:02:02;;;;;;;3.78;1.85;;;15.70;99.90;;;;;;5007300;28;20053;-58
2022/05/27 00:04:28;;;;;;;3.58;2.05;;;15.70;99.90;;;;;;4996738;28;20554;-61
2022/05/27 00:06:53;;;;;;;5.15;2.05;;;15.60;99.90;;;;;;5003866;28;20036;-61
2022/05/27 00:09:20;;;;;;;7.28;2.00;;;15.60;99.90;;;;;;4999586;28;20018;-62
2022/05/27 00:11:46;;;;;;;4.22;2.45;;;15.60;99.90;;;;;;4989212;28;20616;-61
2022/05/27 00:14:11;;;;;;;5.40;2.22;;;15.60;99.90;;;;;;5001046;28;20040;-60
2022/05/27 00:16:37;;;;;;;6.13;2.50;;;15.50;99.90;;;;;;5003189;28;20046;-60
2022/05/27 00:19:02;;;;;;;5.15;2.08;;;15.60;99.90;;;;;;5001577;28;20021;-60
2022/05/27 00:21:28;;;;;;;6.63;1.88;;;15.50;99.90;;;;;;4987933;28;20106;-61
2022/05/27 00:23:54;;;;;;;7.90;1.83;;;15.50;99.90;;;;;;5010542;28;20472;-60
2022/05/27 00:26:19;;;;;;;9.02;1.90;;;15.50;99.90;;;;;;4985951;28;20034;-62
2022/05/27 00:28:45;;;;;;;6.00;1.95;;;15.50;99.90;;;;;;5010118;28;20116;-62
2022/05/27 00:31:11;;;;;;;4.10;2.10;;;15.40;99.90;;;;;;5000685;28;20022;-60
2022/05/27 00:33:38;;;;;;;4.68;1.77;;;15.40;99.90;;;;;;5011417;28;20053;-61
2022/05/27 00:36:11;;;;;;;2.95;2.13;;;15.40;99.90;;;;;;5007737;28;20428;-60
2022/05/27 00:38:41;;;;;;;4.47;2.15;;;15.40;99.90;;;;;;5009819;28;20041;-61
2022/05/27 00:41:08;;;;;;;5.03;2.10;;;15.30;99.90;;;;;;5013710;28;20025;-61
2022/05/27 00:43:33;;;;;;;7.50;2.30;;;15.30;99.90;;;;;;5010037;28;20053;-61
2022/05/27 00:46:10;;;;;;;6.82;2.40;;;15.40;99.90;;;;;;5011175;28;20068;-58
2022/05/27 00:48:37;;;;;;;7.78;2.80;;;15.30;99.90;;;;;;5013667;28;20034;-61
2022/05/27 00:51:07;;;;;;;4.07;2.63;;;15.30;99.90;;;;;;4988536;28;20048;-60
2022/05/27 00:53:38;;;;;;;7.80;2.63;;;15.30;99.90;;;;;;5015892;28;20054;-61
2022/05/27 00:56:06;;;;;;;3.60;2.67;;;15.30;99.90;;;;;;5015379;28;20033;-60
2022/05/27 00:58:44;;;;;;;5.63;2.35;;;15.30;99.90;;;;;;5010680;28;20029;-61
2022/05/27 01:01:12;;;;;;;5.43;3.47;;;15.30;99.90;;;;;;5007825;28;20492;-61
2022/05/27 01:03:37;;;;;;;7.80;2.80;;;15.30;99.90;;;;;;5010702;28;20052;-61
2022/05/27 01:06:03;;;;;;;5.05;3.08;;;15.30;99.90;;;;;;5005898;28;20037;-60
2022/05/27 01:08:29;;;;;;;6.78;2.83;;;15.30;99.90;;;;;;5006781;28;20026;-61
2022/05/27 01:11:07;;;;;;;5.82;2.90;;;15.20;99.90;;;;;;5002362;28;20372;-61
2022/05/27 01:13:54;;;;;;;5.80;2.83;;;15.20;99.90;;;;;;4999624;28;20022;-62
2022/05/27 01:16:42;;;;;;;7.15;3.03;;;15.20;99.90;;;;;;5006573;28;20036;-61
2022/05/27 01:22:58;;;;;;;4.07;2.75;;;15.10;99.90;;;;;;5007807;28;20049;-62
2022/05/27 01:25:51;;;;;;;5.90;3.22;;;15.10;99.90;;;;;;5004669;28;20454;-61
2022/05/27 01:28:42;;;;;;;8.50;2.90;;;15.00;99.90;;;;;;5009767;28;20033;-61
2022/05/27 01:31:38;;;;;;;3.47;2.67;;;15.10;99.90;;;;;;5009215;28;20042;-60
2022/05/27 01:34:20;;;;;;;11.43;3.30;;;15.00;99.90;;;;;;4996549;28;20033;-61
2022/05/27 01:37:05;;;;;;;12.15;2.75;;;15.00;99.90;;;;;;4997491;28;20169;-62
2022/05/27 01:39:46;;;;;;;6.03;3.00;;;15.00;99.90;;;;;;5004177;28;20114;-61
2022/05/27 01:42:26;;;;;;;3.95;2.47;;;15.10;99.90;;;;;;4999762;28;20038;-61
2022/05/27 01:45:09;;;;;;;5.47;2.65;;;15.00;99.90;;;;;;5009621;28;20442;-62
2022/05/27 01:47:49;;;;;;;6.18;2.72;;;15.00;99.90;;;;;;5005341;28;20487;-62
2022/05/27 01:50:38;;;;;;;4.15;2.67;;;15.00;99.90;;;;;;4995844;28;20031;-61
2022/05/27 01:53:10;;;;;;;4.45;2.45;;;15.00;99.90;;;;;;4981938;28;20057;-61
2022/05/27 01:55:42;;;;;;;4.28;2.30;;;15.00;99.90;;;;;;5003411;28;20015;-61
2022/05/27 01:58:14;;;;;;;5.60;2.65;;;14.90;99.90;;;;;;5003914;28;20397;-61
2022/05/27 02:00:43;;;;;;;8.05;2.97;;;14.90;99.90;;;;;;4998915;28;20105;-60
2022/05/27 02:03:21;;;;;;;8.95;2.80;;;15.00;99.90;;;;;;4996946;28;20026;-61
2022/05/27 02:06:19;;;;;;;5.35;2.75;;;14.90;99.90;;;;;;5006168;28;20507;-60
2022/05/27 02:09:03;;;;;;;7.22;3.03;;;14.90;99.90;;;;;;5010255;28;20037;-61
2022/05/27 02:11:29;;;;;;;4.63;3.05;;;14.90;99.90;;;;;;5013893;28;20022;-61
2022/05/27 02:14:08;;;;;;;7.15;3.10;;;14.90;99.90;;;;;;5001545;28;20500;-61
2022/05/27 02:17:03;;;;;;;7.45;3.22;;;14.80;99.90;;;;;;5003615;28;20025;-61
2022/05/27 02:19:53;;;;;;;5.03;3.53;;;14.80;99.90;;;;;;4997027;28;20103;-61
2022/05/27 02:22:26;;;;;;;10.25;3.42;;;14.80;99.90;;;;;;5007319;28;20416;-60
2022/05/27 02:24:59;;;;;;;9.15;3.22;;;14.80;99.90;;;;;;5008671;28;20168;-61
2022/05/27 02:27:35;;;;;;;7.60;3.50;;;14.80;99.90;;;;;;5001329;28;20030;-61
2022/05/27 02:30:06;;;;;;;8.20;3.25;;;14.80;99.90;;;;;;5006055;28;20565;-61
2022/05/27 02:32:39;;;;;;;5.70;3.33;;;14.80;99.90;;;;;;5003469;28;20034;-60
2022/05/27 02:35:25;;;;;;;7.83;3.53;;;14.80;99.90;;;;;;5000805;28;20053;-61
2022/05/27 02:37:53;;;;;;;6.97;3.45;;;14.70;99.90;;;;;;5007307;28;20029;-61
2022/05/27 02:40:32;;;;;;;7.72;2.85;;;14.70;99.90;;;;;;5009220;28;20037;-61
2022/05/27 02:43:29;;;;;;;6.60;3.08;;;14.70;99.90;;;;;;5007170;28;20111;-60
2022/05/27 02:46:32;;;;;;;5.45;2.70;;;14.60;99.90;;;;;;5000526;28;20038;-61
2022/05/27 02:49:27;;;;;;;9.57;3.13;;;14.70;99.90;;;;;;5007240;28;20399;-61
2022/05/27 02:52:05;;;;;;;6.13;2.83;;;14.70;99.90;;;;;;4997156;28;20160;-61
2022/05/27 02:54:48;;;;;;;6.75;3.00;;;14.70;99.90;;;;;;5032207;28;20026;-59
2022/05/27 02:57:19;;;;;;;7.50;2.90;;;14.70;99.90;;;;;;5030002;28;20075;-61
2022/05/27 02:59:45;;;;;;;4.45;2.67;;;14.60;99.90;;;;;;5027319;28;20030;-61
2022/05/27 03:02:13;;;;;;;6.28;3.22;;;14.60;99.90;;;;;;5021064;28;20060;-60
2022/05/27 03:04:42;;;;;;;6.60;2.78;;;14.60;99.90;;;;;;5020847;28;20025;-60
2022/05/27 03:07:11;;;;;;;8.88;2.75;;;14.60;99.90;;;;;;5030712;28;20116;-60
2022/05/27 03:09:45;;;;;;;7.85;2.78;;;14.60;99.90;;;;;;5024238;28;20033;-59
2022/05/27 03:12:38;;;;;;;7.55;2.78;;;14.50;99.90;;;;;;5029248;28;20022;-58
2022/05/27 03:15:43;;;;;;;8.52;3.08;;;14.40;99.90;;;;;;5019816;28;20164;-59
2022/05/27 03:18:17;;;;;;;;;;;14.40;99.90;;;;;;5010057;28;20044;-60
2022/05/27 03:20:43;;;;;;;;;;;14.40;99.90;;;;;;5024841;28;19905;-60
2022/05/27 03:23:20;;;;;;;5.95;2.65;;;14.40;99.90;;;;;;5023491;28;19916;-60
2022/05/27 03:25:54;;;;;;;4.82;3.03;;;14.40;99.90;;;;;;5022973;28;20033;-60
2022/05/27 03:28:58;;;;;;;10.85;2.97;;;14.30;99.90;;;;;;5023779;28;20036;-60
2022/05/27 03:31:27;;;;;;;5.85;2.60;;;14.30;99.90;;;;;;5025055;28;20674;-62
2022/05/27 03:33:56;;;;;;;7.63;2.63;;;14.20;99.90;;;;;;5030496;28;20486;-60
2022/05/27 03:36:35;;;;;;;6.05;2.70;;;14.20;99.90;;;;;;5017905;28;20045;-60
2022/05/27 03:39:21;;;;;;;11.30;2.58;;;14.20;99.90;;;;;;5025274;28;20057;-60
2022/05/27 03:41:53;;;;;;;7.13;2.22;;;14.20;99.90;;;;;;5025139;28;20045;-59
2022/05/27 03:44:21;;;;;;;8.40;2.33;;;14.20;99.90;;;;;;5029482;28;20029;-60
2022/05/27 03:46:49;;;;;;;5.72;2.00;;;14.20;99.90;;;;;;5022121;28;20403;-59
2022/05/27 03:49:15;;;;;;;5.05;2.20;;;14.20;99.90;;;;;;5030233;28;20021;-60
2022/05/27 03:51:47;;;;;;;2.67;1.88;;;14.20;99.90;;;;;;5007072;28;20088;-60
2022/05/27 03:54:14;;;;;;;4.43;1.73;;;14.10;99.90;;;;;;5019832;28;20038;-59
2022/05/27 03:56:42;;;;;;;4.50;1.90;;;14.10;99.90;;;;;;5023229;28;20537;-59
2022/05/27 03:59:10;;;;;;;5.35;2.50;;;14.10;99.90;;;;;;5030980;28;20139;-60
2022/05/27 04:01:39;;;;;;;7.82;2.38;;;14.10;99.90;;;;;;5022365;28;20769;-60
2022/05/27 04:04:06;;;;;;;6.22;2.28;;;14.00;99.90;;;;;;5031045;28;20029;-59
2022/05/27 04:06:32;;;;;;;12.50;2.60;;;14.00;99.90;;;;;;5027782;28;20092;-60
2022/05/27 04:08:58;;;;;;;6.90;2.17;;;13.90;99.90;;;;;;5017302;28;20034;-60
2022/05/27 04:11:25;;;;;;;4.93;2.47;;;13.90;99.90;;;;;;5024849;28;20036;-60
2022/05/27 04:13:51;;;;;;;5.95;2.28;;;13.90;99.90;;;;;;5026486;28;20727;-60
2022/05/27 04:16:17;;;;;;;6.35;2.67;;;13.70;99.90;;;;;;5024276;28;20104;-60
2022/05/27 04:18:43;;;;;;;4.75;2.47;;;13.60;99.90;;;;;;5022294;28;20061;-60
2022/05/27 04:21:09;;;;;;;6.28;2.63;;;13.60;99.90;;;;;;5027565;28;20503;-60
2022/05/27 04:23:35;;;;;;;4.97;2.90;;;13.50;99.90;;;;;;5030238;28;20535;-60
2022/05/27 04:26:01;;;;;;;5.40;3.03;;;13.40;99.90;;;;;;5029154;28;20082;-60
2022/05/27 04:28:26;;;;;;;6.20;3.65;;;13.30;99.90;;;;;;5020311;28;20116;-59
2022/05/27 04:30:52;;;;;;;7.68;3.75;;;13.40;99.90;;;;;;5018023;28;20037;-61
2022/05/27 04:33:17;;;;;;;5.15;4.25;;;13.30;99.90;;;;;;5028443;28;20025;-61
2022/05/27 04:35:43;;;;;;;9.35;3.92;;;13.20;99.90;;;;;;5026260;28;20084;-60
2022/05/27 04:38:09;;;;;;;7.07;4.78;;;13.30;99.90;;;;;;5024280;28;20034;-61
2022/05/27 04:40:35;;;;;;;13.02;5.55;;;13.20;99.90;;;;;;5027549;28;20025;-60
2022/05/27 04:43:02;;;;;;;9.30;4.60;;;13.20;99.90;;;;;;5025574;28;20407;-61
2022/05/27 04:45:28;;;;;;;9.38;4.57;;;13.20;99.90;;;;;;5026919;28;20026;-60
2022/05/27 04:47:55;;;;;;;11.80;4.90;;;13.20;99.90;;;;;;5019895;28;20049;-60
2022/05/27 04:50:21;;;;;;;8.13;5.13;;;13.30;99.90;;;;;;5017966;28;20406;-61
2022/05/27 04:52:46;;;;;;;9.45;5.30;;;13.20;99.90;;;;;;5004705;28;20049;-60
2022/05/27 04:55:15;;;;;;;9.63;5.60;;;13.30;99.90;;;;;;5028664;28;20029;-59
2022/05/27 04:57:44;;;;;;;12.13;4.93;;;13.30;99.90;;;;;;5026139;28;20046;-60
2022/05/27 05:00:22;;;;;;;9.40;5.20;;;13.30;99.90;;;;;;5020709;28;20033;-60
2022/05/27 05:02:49;;;;;;;9.10;4.78;;;13.30;99.90;;;;;;5018500;28;20034;-60
2022/05/27 05:05:16;;;;;;;8.10;4.50;;;13.20;99.90;;;;;;5028910;28;20376;-60
2022/05/27 05:07:44;;;;;;;6.47;4.22;;;13.30;99.90;;;;;;5025287;28;20045;-61
2022/05/27 05:10:12;;;;;;;9.77;4.22;;;13.30;99.90;;;;;;5028830;28;20383;-61
2022/05/27 05:12:38;;;;;;;9.68;3.78;;;13.30;99.90;;;;;;5020935;28;20021;-60
2022/05/27 05:15:04;;;;;;;7.50;4.38;;;13.40;99.90;;;;;;5027252;28;20053;-58
2022/05/27 05:17:29;;;;;;;4.35;3.53;;;13.50;99.90;;;;;;5027682;28;20045;-60
2022/05/27 05:19:56;;;;;;;9.20;3.65;;;13.50;99.90;;;;;;5025605;28;20407;-59
2022/05/27 05:22:22;;;;;;;6.80;4.60;;;13.60;99.90;;;;;;5019884;28;20030;-60
2022/05/27 05:24:49;;;;;;;7.13;3.85;;;13.50;99.90;;;;;;5027623;28;20037;-60
2022/05/27 05:27:15;;;;;;;7.20;3.80;;;13.50;99.90;;;;;;5027848;28;20040;-60
2022/05/27 05:29:40;;;;;;;7.18;4.20;;;13.60;99.90;;;;;;5028111;28;20033;-60
2022/05/27 05:32:06;;;;;;;12.45;4.40;;;13.60;99.90;;;;;;5024787;28;20048;-60
2022/05/27 05:34:32;;;;;;;6.05;4.00;;;13.60;99.90;;;;;;5028024;28;20454;-60
2022/05/27 05:36:58;;;;;;;6.30;4.32;;;13.60;99.90;;;;;;5020956;28;20510;-60
2022/05/27 05:39:24;;;;;;;6.15;4.10;;;13.50;99.90;;;;;;5022933;28;20056;-60
2022/05/27 05:41:59;;;;;;;7.85;4.45;;;13.50;99.90;;;;;;5015151;28;20186;-60
2022/05/27 05:44:26;;;;;;;6.72;4.18;;;13.50;99.90;;;;;;5017721;28;20491;-59
2022/05/27 05:46:52;;;;;;;9.60;4.38;;;13.40;99.90;;;;;;5027217;28;20033;-60
2022/05/27 05:49:17;;;;;;;6.88;4.45;;;13.50;99.90;;;;;;5033441;28;20033;-60
2022/05/27 05:51:43;;;;;;;6.70;4.18;;;13.50;99.90;;;;;;5029179;28;20105;-60
2022/05/27 05:54:08;;;;;;;6.15;3.83;;;13.60;99.90;;;;;;5006185;28;20042;-60
2022/05/27 05:56:34;;;;;;;5.20;4.28;;;13.60;99.90;;;;;;5022317;28;20025;-60
2022/05/27 05:59:00;;;;;;;6.22;4.15;;;13.60;99.90;;;;;;5021088;28;20060;-60
2022/05/27 06:01:26;;;;;;;8.13;5.25;;;13.60;99.90;;;;;;5025129;28;20029;-60
2022/05/27 06:03:52;;;;;;;10.52;5.47;;;13.60;99.90;;;;;;5024993;28;20033;-60
2022/05/27 06:06:18;;;;;;;8.20;5.03;;;13.70;99.90;;;;;;5029024;28;20037;-60
2022/05/27 06:08:44;;;;;;;4.80;4.10;;;13.70;99.90;;;;;;5033609;28;20028;-60
2022/05/27 06:11:10;;;;;;;6.25;4.85;;;13.60;99.90;;;;;;5026492;28;20033;-59
2022/05/27 06:13:39;;;;;;;5.93;4.80;;;13.70;99.90;;;;;;5029123;28;20025;-60
2022/05/27 06:16:06;;;;;;;5.70;4.90;;;13.70;99.90;;;;;;5030469;28;20495;-59
2022/05/27 06:18:32;;;;;;;6.95;5.57;;;13.70;99.90;;;;;;5025722;28;20156;-61
2022/05/27 06:20:59;;;;;;;9.15;5.10;;;13.70;99.90;;;;;;5025554;28;20030;-62
2022/05/27 06:23:28;;;;;;;7.32;5.68;;;13.70;99.90;;;;;;5014187;28;20131;-60
2022/05/27 06:25:58;;;;;;;5.45;4.93;;;13.70;99.90;;;;;;5029009;28;20029;-60
2022/05/27 06:36:37;;;;;;;2.65;1.70;;;13.80;99.90;;;;;;5028345;28;20048;-60
2022/05/27 06:39:05;;;;;;;4.28;1.35;;;13.70;99.90;;;;;;5031825;28;20048;-60
2022/05/27 06:41:31;;;;;;;4.95;1.48;;;13.50;99.90;;;;;;5028833;28;20049;-59
2022/05/27 06:43:57;;;;;;;3.63;1.55;;;13.40;99.90;;;;;;5028890;28;20041;-59
2022/05/27 06:46:23;;;;;;;3.90;2.13;;;13.20;99.90;;;;;;5031075;28;20410;-59
2022/05/27 06:48:48;;;;;;;3.42;1.40;;;13.20;99.90;;;;;;5030545;28;20548;-59
2022/05/27 06:51:14;;;;;;;2.97;1.35;;;13.10;99.90;;;;;;5029314;28;20096;-60
2022/05/27 06:53:40;;;;;;;3.70;1.30;;;13.10;99.90;;;;;;5014082;28;20045;-59
2022/05/27 06:56:07;;;;;;;3.25;1.50;;;13.10;99.90;;;;;;5029244;28;20141;-59
2022/05/27 06:58:33;;;;;;;2.95;1.23;;;13.10;99.90;;;;;;5029938;28;20080;-60
2022/05/27 07:00:59;;;;;;;2.78;1.05;;;13.10;99.90;;;;;;5031397;28;20032;-59
2022/05/27 07:03:25;;;;;;;2.45;1.20;;;13.20;99.90;;;;;;5029304;28;20032;-59
2022/05/27 07:05:51;;;;;;;2.50;1.08;;;13.20;99.90;;;;;;5027361;28;20041;-60
2022/05/27 07:08:17;;;;;;;3.50;1.50;;;13.40;99.90;;;;;;5028317;28;20037;-59
2022/05/27 07:10:42;;;;;;;4.93;1.45;;;13.40;99.90;;;;;;5029653;28;20030;-59
2022/05/27 07:13:08;;;;;;;6.50;1.38;;;13.60;99.90;;;;;;5030454;28;20026;-60
2022/05/27 07:15:34;;;;;;;4.28;1.48;;;13.80;99.90;;;;;;5030934;28;20022;-60
2022/05/27 07:18:03;;;;;;;3.72;1.70;;;13.90;99.90;;;;;;5028592;28;20032;-59
2022/05/27 07:20:28;;;;;;;6.53;1.67;;;14.00;99.90;;;;;;5030564;28;20057;-60
2022/05/27 07:22:54;;;;;;;8.25;2.30;;;14.10;99.90;;;;;;5030638;28;20124;-60
2022/05/27 07:25:19;;;;;;;4.53;1.73;;;14.20;99.90;;;;;;5030318;28;20487;-60
2022/05/27 07:27:45;;;;;;;5.85;1.52;;;14.30;99.90;;;;;;5025291;28;20041;-59
2022/05/27 07:30:14;;;;;;;2.25;1.35;;;14.50;99.90;;;;;;5027696;28;20037;-58
2022/05/27 07:32:40;;;;;;;3.20;1.45;;;14.30;99.90;;;;;;5030594;28;20083;-59
2022/05/27 07:35:07;;;;;;;5.65;1.73;;;14.30;99.90;;;;;;5032740;28;20024;-60
2022/05/27 07:37:33;;;;;;;4.30;2.20;;;14.40;99.90;;;;;;5026796;28;20057;-60
2022/05/27 07:39:59;;;;;;;2.78;1.30;;;14.30;99.90;;;;;;5019755;28;20030;-60
2022/05/27 07:42:24;;;;;;;3.47;1.38;;;14.20;99.90;;;;;;5021146;28;20080;-60
2022/05/27 07:44:53;;;;;;;2.55;1.65;;;13.90;99.90;;;;;;5017212;28;20041;-59
2022/05/27 07:47:19;;;;;;;5.55;1.48;;;13.80;99.90;;;;;;5026601;28;20030;-60
2022/05/27 07:49:45;;;;;;;12.65;1.83;;;13.70;99.90;;;;;;5021526;28;20175;-60
2022/05/27 07:52:11;;;;;;;4.32;1.70;;;13.40;99.90;;;;;;5023197;28;20134;-60
2022/05/27 07:54:36;;;;;;;7.45;1.90;;;13.40;99.90;;;;;;5013823;28;20044;-60
2022/05/27 07:57:03;;;;;;;6.43;1.75;;;13.50;99.90;;;;;;5025713;28;20037;-61
2022/05/27 07:59:29;;;;;;;6.70;1.65;;;13.40;99.90;;;;;;5031240;28;20115;-60
2022/05/27 08:01:54;;;;;;;5.03;1.33;;;13.60;99.90;;;;;;5027044;28;20072;-61
2022/05/27 08:04:20;;;;;;;6.55;1.90;;;13.90;99.90;;;;;;5031336;28;20111;-61
2022/05/27 08:06:46;;;;;;;7.32;1.77;;;14.10;99.90;;;;;;5025204;28;20034;-60
2022/05/27 08:09:13;;;;;;;13.73;2.05;;;14.30;99.90;;;;;;5019614;28;20042;-61
2022/05/27 08:11:38;;;;;;;4.95;1.92;;;14.40;99.90;;;;;;5027348;28;20041;-59
2022/05/27 08:14:05;;;;;;;6.60;2.30;;;14.70;99.90;;;;;;5030497;28;20030;-61
2022/05/27 08:16:33;;;;;;;4.65;2.05;;;14.60;99.90;;;;;;5025689;28;20036;-60
2022/05/27 08:19:02;;;;;;;7.43;2.20;;;14.60;99.90;;;;;;5029647;28;20022;-60
2022/05/27 08:21:27;;;;;;;5.05;2.00;;;14.70;99.90;;;;;;5029389;28;20056;-61
2022/05/27 08:23:53;;;;;;;6.55;2.00;;;14.80;99.90;;;;;;5022084;28;20479;-61
2022/05/27 08:26:19;;;;;;;10.02;2.00;;;15.10;99.90;;;;;;5023314;28;20025;-61
2022/05/27 08:28:44;;;;;;;6.72;1.95;;;15.50;99.90;;;;;;5022712;28;20073;-59
2022/05/27 08:31:10;;;;;;;7.03;2.83;;;15.70;99.90;;;;;;5020377;28;22112;-61
2022/05/27 08:39:08;;;;;;;7.00;1.73;;;18.10;99.90;;;;;;5021862;28;20048;-61
2022/05/27 08:41:51;;;;;;;11.60;2.53;;;18.40;99.90;;;;;;5026419;28;20131;-61
2022/05/27 08:44:34;;;;;;;6.43;1.65;;;18.30;99.90;;;;;;5021633;28;20491;-61
2022/05/27 08:47:24;;;;;;;9.68;3.03;;;18.60;99.90;;;;;;5029782;28;20033;-60
2022/05/27 08:50:13;;;;;;;6.15;1.73;;;19.00;99.90;;;;;;5024320;28;20121;-61
2022/05/27 08:52:54;;;;;;;11.38;2.05;;;18.90;99.90;;;;;;5022820;28;20041;-61
2022/05/27 09:01:22;;;;;;;7.03;2.30;;;20.30;99.90;;;;;;5028601;28;20091;-61
2022/05/27 09:04:03;;;;;;;8.98;2.40;;;20.10;99.90;;;;;;5024903;28;20022;-62
2022/05/27 09:06:41;;;;;;;5.45;2.10;;;20.70;99.90;;;;;;5020351;28;20105;-59
2022/05/27 09:09:17;;;;;;;9.32;2.53;;;20.80;99.80;;;;;;5021833;28;20403;-60
2022/05/27 09:11:53;;;;;;;8.95;2.75;;;20.40;99.90;;;;;;5021394;28;20048;-61
2022/05/27 09:14:21;;;;;;;10.50;3.08;;;20.00;99.90;;;;;;5030202;28;20045;-60
2022/05/27 09:17:00;;;;;;;9.40;2.78;;;19.80;99.90;;;;;;5025691;28;20033;-61
2022/05/27 09:19:56;;;;;;;9.65;3.47;;;19.70;99.90;;;;;;5022160;28;20034;-59
2022/05/27 09:22:27;;;;;;;10.15;3.80;;;19.90;99.90;;;;;;5019345;28;20032;-60
2022/05/27 09:25:34;;;;;;;6.57;3.13;;;19.20;99.90;;;;;;5025483;28;20506;-62
2022/05/27 09:28:17;;;;;;;9.75;3.58;;;19.40;99.90;;;;;;5018508;28;20029;-61
2022/05/27 09:30:43;;;;;;;7.68;3.13;;;19.60;99.90;;;;;;5020947;28;20030;-61
2022/05/27 09:33:16;;;;;;;10.50;3.50;;;19.80;99.90;;;;;;5027181;28;20037;-62
2022/05/27 09:35:58;;;;;;;8.50;3.25;;;19.30;99.90;;;;;;5025867;28;20047;-60
2022/05/27 09:38:27;;;;;;;7.28;2.40;;;18.90;99.90;;;;;;5023378;28;20034;-61
2022/05/27 09:40:57;;;;;;;10.52;3.13;;;19.90;99.90;;;;;;5024142;28;20169;-61
2022/05/27 09:43:46;;;;;;;11.80;2.72;;;20.20;99.90;;;;;;5031253;28;20088;-60
2022/05/27 09:46:17;;;;;;;7.43;2.35;;;20.70;99.90;;;;;;5015226;28;20065;-61
2022/05/27 09:48:44;;;;;;;6.35;2.47;;;21.10;99.60;;;;;;5025657;28;20051;-62
2022/05/27 09:51:12;;;;;;;4.20;2.33;;;22.00;99.90;;;;;;5026407;28;20025;-62
2022/05/27 09:53:49;;;;;;;3.92;2.35;;;22.00;97.00;;;;;;5009881;28;20052;-60
2022/05/27 09:56:31;;;;;;;6.50;2.83;;;21.90;97.20;;;;;;5021996;28;20163;-61
2022/05/27 09:59:19;;;;;;;5.43;2.20;;;22.10;98.00;;;;;;5025749;28;20049;-62
2022/05/27 10:01:45;;;;;;;10.50;2.88;;;23.20;96.20;;;;;;5030377;28;20589;-61
2022/05/27 10:04:16;;;;;;;13.60;3.10;;;23.30;95.10;;;;;;5028095;28;20091;-61
2022/05/27 10:06:43;;;;;;;5.68;2.30;;;23.70;94.40;;;;;;5024987;28;20088;-61
2022/05/27 10:09:30;;;;;;;3.75;2.30;;;23.00;95.30;;;;;;5027718;28;20044;-62
2022/05/27 10:11:57;;;;;;;6.68;2.30;;;23.00;96.10;;;;;;5019514;28;20026;-59
2022/05/27 10:14:29;;;;;;;5.95;2.30;;;22.80;95.30;;;;;;5029184;28;20034;-61
2022/05/27 10:17:25;;;;;;;7.50;2.55;;;22.60;95.00;;;;;;5028819;28;20029;-61
2022/05/27 10:19:51;;;;;;;7.00;2.85;;;22.70;95.30;;;;;;5025289;28;20579;-60
2022/05/27 10:22:30;;;;;;;5.63;2.47;;;22.40;95.60;;;;;;5030280;28;20064;-60
2022/05/27 10:25:08;;;;;;;5.88;3.50;;;22.10;96.70;;;;;;5026552;28;20506;-61
2022/05/27 10:27:43;;;;;;;6.70;2.55;;;22.10;97.70;;;;;;5022628;28;20029;-61
2022/05/27 10:30:22;;;;;;;5.88;2.60;;;22.10;97.40;;;;;;5028623;28;20036;-61
2022/05/27 10:32:48;;;;;;;5.30;2.65;;;22.40;96.30;;;;;;5023398;28;20022;-62
2022/05/27 10:35:26;;;;;;;5.30;3.13;;;22.00;96.50;;;;;;5022433;28;20030;-61
2022/05/27 10:38:10;;;;;;;6.22;2.95;;;21.50;97.30;;;;;;5028132;28;20045;-61
2022/05/27 10:40:58;;;;;;;6.00;2.97;;;21.70;97.30;;;;;;5024897;28;20558;-61
2022/05/27 10:43:55;;;;;;;8.20;2.80;;;22.10;98.40;;;;;;5024734;28;20033;-61
2022/05/27 10:46:35;;;;;;;4.90;2.47;;;22.20;97.10;;;;;;5020168;28;20042;-61
2022/05/27 10:49:09;;;;;;;4.78;2.67;;;22.20;95.30;;;;;;5018042;28;20395;-61
2022/05/27 10:52:05;;;;;;;9.25;3.08;;;22.00;94.70;;;;;;5025303;28;20079;-61
2022/05/27 10:55:09;;;;;;;9.18;2.83;;;21.60;94.40;;;;;;5005043;28;20084;-58
2022/05/27 11:04:02;;;;;;;6.55;2.55;;;21.20;94.70;;;;;;5030705;28;20676;-61
2022/05/27 11:06:50;;;;;;;7.20;2.30;;;21.40;94.60;;;;;;5021879;28;20033;-58
2022/05/27 11:09:31;;;;;;;6.18;2.30;;;21.50;94.60;;;;;;5024731;28;20025;-60
2022/05/27 11:12:10;;;;;;;5.93;2.65;;;21.70;94.90;;;;;;5003603;28;20495;-60
2022/05/27 11:17:52;;;;;;;6.05;2.47;;;21.70;94.70;;;;;;5026479;28;20037;-61
2022/05/27 11:20:29;;;;;;;6.70;2.25;;;22.00;92.10;;;;;;4998349;28;20049;-61
2022/05/27 11:23:43;;;;;;;5.32;2.15;;;21.90;91.50;;;;;;5025998;28;20034;-61
2022/05/27 11:26:32;;;;;;;7.00;2.40;;;21.90;91.10;;;;;;5003520;28;20045;-61
2022/05/27 11:29:07;;;;;;;7.30;2.25;;;22.10;91.00;;;;;;5028697;28;20127;-60
2022/05/27 11:31:52;;;;;;;5.68;2.63;;;22.20;90.10;;;;;;5014478;28;20030;-60
2022/05/27 11:34:28;;;;;;;10.05;2.38;;;22.10;89.80;;;;;;5012846;28;20506;-61
2022/05/27 11:36:53;;;;;;;4.78;2.00;;;22.40;90.50;;;;;;5027844;28;20060;-59
2022/05/27 11:39:49;;;;;;;7.22;3.17;;;22.50;90.00;;;;;;5029304;28;20495;-61
2022/05/27 11:42:28;;;;;;;5.85;1.73;;;22.50;86.50;;;;;;5023192;28;20037;-60
2022/05/27 11:45:08;;;;;;;7.20;1.83;;;21.80;82.80;;;;;;5028513;28;20041;-61
2022/05/27 11:47:46;;;;;;;6.55;1.98;;;21.20;87.60;;;;;;5029683;28;20057;-60
2022/05/27 11:50:36;;;;;;;8.55;2.33;;;20.60;88.20;;;;;;5023195;28;20030;-61
2022/05/27 11:53:03;;;;;;;6.68;2.72;;;20.00;89.20;;;;;;5017414;28;20076;-61
2022/05/27 11:55:56;;;;;;;9.75;2.67;;;20.00;90.70;;;;;;5011783;28;20041;-62
2022/05/27 11:58:28;;;;;;;8.60;2.67;;;19.60;91.50;;;;;;5024136;28;20032;-61
2022/05/27 12:01:32;;;;;;;9.85;2.50;;;19.50;91.70;;;;;;5024608;28;20030;-61
2022/05/27 12:04:15;;;;;;;10.30;3.20;;;19.70;92.80;;;;;;5019628;28;20131;-61
2022/05/27 12:06:54;;;;;;;7.35;2.88;;;19.90;92.90;;;;;;5025206;28;20025;-61
2022/05/27 12:09:35;;;;;;;7.85;2.67;;;19.50;92.50;;;;;;5027661;28;20441;-61
2022/05/27 12:12:07;;;;;;;10.75;3.35;;;19.80;93.50;;;;;;5024460;28;20112;-61
2022/05/27 12:14:38;;;;;;;9.00;2.70;;;19.90;92.10;;;;;;5029634;28;20021;-60
2022/05/27 12:17:09;;;;;;;8.65;2.83;;;20.10;93.40;;;;;;5029961;28;20022;-61
2022/05/27 12:19:40;;;;;;;8.30;2.70;;;20.30;92.30;;;;;;5029158;28;20041;-60
2022/05/27 12:22:12;;;;;;;7.47;2.60;;;20.50;94.00;;;;;;5026599;28;20030;-61
2022/05/27 12:24:43;;;;;;;7.30;3.07;;;20.70;93.10;;;;;;5028171;28;20033;-60
2022/05/27 12:27:12;;;;;;;4.53;1.98;;;21.20;92.00;;;;;;5029251;28;20041;-61
2022/05/27 12:29:40;;;;;;;11.77;2.60;;;21.30;90.00;;;;;;5022863;28;20155;-61
2022/05/27 12:32:10;;;;;;;10.80;3.53;;;21.70;90.50;;;;;;5025917;28;20444;-61
2022/05/27 12:34:41;;;;;;;10.25;2.40;;;21.70;89.00;;;;;;5020890;28;20026;-59
2022/05/27 12:37:13;;;;;;;10.13;3.50;;;21.50;87.10;;;;;;5020826;28;20026;-61
2022/05/27 12:39:41;;;;;;;9.07;2.60;;;20.90;90.30;;;;;;5014647;28;20056;-60
2022/05/27 12:42:17;;;;;;;11.30;2.85;;;20.50;90.20;;;;;;5016257;28;20064;-61
2022/05/27 12:44:44;;;;;;;6.15;2.90;;;19.90;91.40;;;;;;5013682;28;20038;-61
2022/05/27 12:47:35;;;;;;;9.60;3.13;;;19.80;91.60;;;;;;5020905;28;20033;-60
2022/05/27 12:50:14;;;;;;;6.75;2.50;;;19.90;91.60;;;;;;5023541;28;20042;-61
2022/05/27 12:52:50;;;;;;;13.98;2.63;;;20.10;91.80;;;;;;5030160;28;20132;-61
2022/05/27 13:01:28;;;;;;;8.77;3.05;;;20.50;90.30;;;;;;5027044;28;20147;-61
2022/05/27 13:03:56;;;;;;;18.45;4.15;;;20.70;87.90;;;;;;5023997;28;20017;-62
2022/05/27 13:06:25;;;;;;;12.40;2.33;;;20.90;85.40;;;;;;5029569;28;20051;-62
2022/05/27 13:08:50;;;;;;;5.97;1.73;;;20.90;85.50;;;;;;5030589;28;20033;-61
2022/05/27 13:11:37;;;;;;;6.53;1.42;;;21.10;82.40;;;;;;5029613;28;20028;-61
2022/05/27 13:14:03;;;;;;;8.55;1.95;;;21.20;79.00;;;;;;5028690;28;20026;-61
2022/05/27 13:16:29;;;;;;;6.75;1.65;;;21.40;80.30;;;;;;5023552;28;20059;-61
2022/05/27 13:19:21;;;;;;;6.72;1.67;;;21.60;81.20;;;;;;5027769;28;20554;-60
2022/05/27 13:21:54;;;;;;;10.20;1.67;;;21.70;79.30;;;;;;4981314;28;20045;-60
2022/05/27 13:24:19;;;;;;;4.93;1.98;;;21.20;79.20;;;;;;5030516;28;20076;-61
2022/05/27 13:27:22;;;;;;;18.70;2.88;;;21.00;80.70;;;;;;5029583;28;20426;-61
2022/05/27 13:29:54;;;;;;;9.20;2.45;;;20.70;80.20;;;;;;5026125;28;20030;-61
2022/05/27 13:32:23;;;;;;;9.90;2.55;;;20.30;80.90;;;;;;5028585;28;20021;-61
2022/05/27 13:34:58;;;;;;;6.75;1.80;;;20.20;79.50;;;;;;5023610;28;20081;-60
2022/05/27 13:37:26;;;;;;;4.82;1.73;;;20.30;79.30;;;;;;5020808;28;20347;-61
2022/05/27 13:40:03;;;;;;;9.95;1.98;;;20.30;77.40;;;;;;5016162;28;20022;-61
2022/05/27 13:42:33;;;;;;;14.27;1.92;;;20.50;79.30;;;;;;5019669;28;20395;-61
2022/05/27 13:45:11;;;;;;;6.72;2.05;;;20.70;76.00;;;;;;5028939;28;20033;-61
2022/05/27 13:47:41;;;;;;;7.53;2.13;;;20.70;78.30;;;;;;5020147;28;20483;-60
2022/05/27 13:50:25;;;;;;;6.53;1.75;;;20.30;75.80;;;;;;5028873;28;20482;-60
2022/05/27 13:52:51;;;;;;;7.82;2.33;;;20.10;77.00;;;;;;5018137;28;20022;-61
2022/05/27 13:55:17;;;;;;;11.05;2.22;;;19.90;76.90;;;;;;5007928;28;20049;-61